sensor_id;sensor_type;location;lat;lon;timestamp;P1;durP1;ratioP1;P2;durP2;ratioP2
47555;SDS011;33291;46.222;26.460;2023-06-14T00:02:19;6.93;;;4.18;;
47555;SDS011;33291;46.222;26.460;2023-06-14T00:04:44;6.55;;;3.97;;
47555;SDS011;33291;46.222;26.460;2023-06-14T00:07:10;5.30;;;4.05;;
47555;SDS011;33291;46.222;26.460;2023-06-14T00:09:38;5.85;;;4.30;;
47555;SDS011;33291;46.222;26.460;2023-06-14T00:12:04;8.85;;;4.80;;
47555;SDS011;33291;46.222;26.460;2023-06-14T00:14:31;5.63;;;4.03;;
47555;SDS011;33291;46.222;26.460;2023-06-14T00:16:56;6.88;;;4.45;;
47555;SDS011;33291;46.222;26.460;2023-06-14T00:19:24;5.25;;;3.92;;
47555;SDS011;33291;46.222;26.460;2023-06-14T00:21:50;6.68;;;4.00;;
47555;SDS011;33291;46.222;26.460;2023-06-14T00:24:17;5.78;;;4.03;;
47555;SDS011;33291;46.222;26.460;2023-06-14T00:26:42;5.28;;;3.75;;
47555;SDS011;33291;46.222;26.460;2023-06-14T00:29:08;5.63;;;3.58;;
47555;SDS011;33291;46.222;26.460;2023-06-14T00:31:33;5.32;;;4.18;;
47555;SDS011;33291;46.222;26.460;2023-06-14T00:33:59;5.93;;;3.90;;
47555;SDS011;33291;46.222;26.460;2023-06-14T00:36:24;7.18;;;4.28;;
47555;SDS011;33291;46.222;26.460;2023-06-14T00:38:50;6.50;;;4.00;;
47555;SDS011;33291;46.222;26.460;2023-06-14T00:41:15;6.10;;;4.10;;
47555;SDS011;33291;46.222;26.460;2023-06-14T00:43:41;5.78;;;3.80;;
47555;SDS011;33291;46.222;26.460;2023-06-14T00:46:06;5.63;;;4.07;;
47555;SDS011;33291;46.222;26.460;2023-06-14T00:48:31;7.47;;;4.13;;
47555;SDS011;33291;46.222;26.460;2023-06-14T00:50:59;13.70;;;4.35;;
47555;SDS011;33291;46.222;26.460;2023-06-14T00:53:29;5.88;;;4.30;;
47555;SDS011;33291;46.222;26.460;2023-06-14T00:55:56;4.70;;;4.10;;
47555;SDS011;33291;46.222;26.460;2023-06-14T00:58:21;4.97;;;3.55;;
47555;SDS011;33291;46.222;26.460;2023-06-14T01:00:47;5.93;;;4.03;;
47555;SDS011;33291;46.222;26.460;2023-06-14T01:03:13;5.15;;;3.70;;
47555;SDS011;33291;46.222;26.460;2023-06-14T01:05:44;9.10;;;4.40;;
47555;SDS011;33291;46.222;26.460;2023-06-14T01:08:24;5.72;;;3.80;;
47555;SDS011;33291;46.222;26.460;2023-06-14T01:11:07;4.88;;;3.42;;
47555;SDS011;33291;46.222;26.460;2023-06-14T01:13:38;4.93;;;3.40;;
47555;SDS011;33291;46.222;26.460;2023-06-14T01:16:06;4.97;;;3.88;;
47555;SDS011;33291;46.222;26.460;2023-06-14T01:18:32;4.65;;;3.45;;
47555;SDS011;33291;46.222;26.460;2023-06-14T01:20:59;5.45;;;3.95;;
47555;SDS011;33291;46.222;26.460;2023-06-14T01:23:30;4.63;;;3.70;;
47555;SDS011;33291;46.222;26.460;2023-06-14T01:25:58;8.85;;;3.80;;
47555;SDS011;33291;46.222;26.460;2023-06-14T01:28:25;5.43;;;3.80;;
47555;SDS011;33291;46.222;26.460;2023-06-14T01:30:57;7.35;;;3.83;;
47555;SDS011;33291;46.222;26.460;2023-06-14T01:33:28;6.68;;;4.22;;
47555;SDS011;33291;46.222;26.460;2023-06-14T01:35:55;4.50;;;3.35;;
47555;SDS011;33291;46.222;26.460;2023-06-14T01:38:22;5.47;;;3.85;;
47555;SDS011;33291;46.222;26.460;2023-06-14T01:40:50;6.28;;;3.58;;
47555;SDS011;33291;46.222;26.460;2023-06-14T01:43:17;4.93;;;3.70;;
47555;SDS011;33291;46.222;26.460;2023-06-14T01:45:45;7.90;;;4.25;;
47555;SDS011;33291;46.222;26.460;2023-06-14T01:48:13;5.80;;;4.70;;
47555;SDS011;33291;46.222;26.460;2023-06-14T01:50:39;5.57;;;4.00;;
47555;SDS011;33291;46.222;26.460;2023-06-14T01:53:06;6.60;;;4.82;;
47555;SDS011;33291;46.222;26.460;2023-06-14T01:55:32;7.03;;;4.60;;
47555;SDS011;33291;46.222;26.460;2023-06-14T01:58:02;13.02;;;5.00;;
47555;SDS011;33291;46.222;26.460;2023-06-14T02:00:29;8.48;;;5.15;;
47555;SDS011;33291;46.222;26.460;2023-06-14T02:02:54;7.40;;;4.70;;
47555;SDS011;33291;46.222;26.460;2023-06-14T02:05:20;6.60;;;3.85;;
47555;SDS011;33291;46.222;26.460;2023-06-14T02:07:46;4.78;;;3.72;;
47555;SDS011;33291;46.222;26.460;2023-06-14T02:10:12;6.93;;;3.83;;
47555;SDS011;33291;46.222;26.460;2023-06-14T02:12:38;6.15;;;4.35;;
47555;SDS011;33291;46.222;26.460;2023-06-14T02:15:04;3.58;;;3.20;;
47555;SDS011;33291;46.222;26.460;2023-06-14T02:17:32;8.32;;;3.60;;
47555;SDS011;33291;46.222;26.460;2023-06-14T02:19:57;4.38;;;2.92;;
47555;SDS011;33291;46.222;26.460;2023-06-14T02:22:23;5.15;;;3.25;;
47555;SDS011;33291;46.222;26.460;2023-06-14T02:24:48;4.57;;;3.38;;
47555;SDS011;33291;46.222;26.460;2023-06-14T02:27:15;5.40;;;3.72;;
47555;SDS011;33291;46.222;26.460;2023-06-14T02:29:40;3.85;;;3.13;;
47555;SDS011;33291;46.222;26.460;2023-06-14T02:32:06;4.57;;;3.45;;
47555;SDS011;33291;46.222;26.460;2023-06-14T02:34:32;6.88;;;3.42;;
47555;SDS011;33291;46.222;26.460;2023-06-14T02:36:59;5.53;;;3.08;;
47555;SDS011;33291;46.222;26.460;2023-06-14T02:39:24;6.60;;;3.10;;
47555;SDS011;33291;46.222;26.460;2023-06-14T02:41:50;5.10;;;3.15;;
47555;SDS011;33291;46.222;26.460;2023-06-14T02:44:17;4.63;;;3.47;;
47555;SDS011;33291;46.222;26.460;2023-06-14T02:46:43;4.53;;;3.40;;
47555;SDS011;33291;46.222;26.460;2023-06-14T02:49:09;5.45;;;3.50;;
47555;SDS011;33291;46.222;26.460;2023-06-14T02:51:35;4.22;;;3.13;;
47555;SDS011;33291;46.222;26.460;2023-06-14T02:54:00;7.07;;;3.50;;
47555;SDS011;33291;46.222;26.460;2023-06-14T02:56:26;5.57;;;3.55;;
47555;SDS011;33291;46.222;26.460;2023-06-14T02:58:53;5.38;;;3.47;;
47555;SDS011;33291;46.222;26.460;2023-06-14T03:01:18;4.40;;;3.63;;
47555;SDS011;33291;46.222;26.460;2023-06-14T03:03:45;5.70;;;3.45;;
47555;SDS011;33291;46.222;26.460;2023-06-14T03:06:11;3.97;;;3.03;;
47555;SDS011;33291;46.222;26.460;2023-06-14T03:08:39;6.18;;;3.03;;
47555;SDS011;33291;46.222;26.460;2023-06-14T03:11:05;4.97;;;2.92;;
47555;SDS011;33291;46.222;26.460;2023-06-14T03:13:31;4.13;;;3.63;;
47555;SDS011;33291;46.222;26.460;2023-06-14T03:16:00;5.30;;;3.70;;
47555;SDS011;33291;46.222;26.460;2023-06-14T03:18:27;6.70;;;4.05;;
47555;SDS011;33291;46.222;26.460;2023-06-14T03:20:55;9.10;;;5.03;;
47555;SDS011;33291;46.222;26.460;2023-06-14T03:23:22;41.53;;;23.17;;
47555;SDS011;33291;46.222;26.460;2023-06-14T03:25:48;64.30;;;36.60;;
47555;SDS011;33291;46.222;26.460;2023-06-14T03:28:14;23.08;;;13.18;;
47555;SDS011;33291;46.222;26.460;2023-06-14T03:30:39;4.75;;;4.13;;
47555;SDS011;33291;46.222;26.460;2023-06-14T03:33:05;5.63;;;3.25;;
47555;SDS011;33291;46.222;26.460;2023-06-14T03:35:31;3.70;;;3.10;;
47555;SDS011;33291;46.222;26.460;2023-06-14T03:37:56;5.93;;;2.75;;
47555;SDS011;33291;46.222;26.460;2023-06-14T03:40:22;9.90;;;2.85;;
47555;SDS011;33291;46.222;26.460;2023-06-14T03:42:52;3.65;;;2.95;;
47555;SDS011;33291;46.222;26.460;2023-06-14T03:45:18;8.07;;;3.70;;
47555;SDS011;33291;46.222;26.460;2023-06-14T03:47:44;5.68;;;3.83;;
47555;SDS011;33291;46.222;26.460;2023-06-14T03:50:09;9.75;;;4.07;;
47555;SDS011;33291;46.222;26.460;2023-06-14T03:52:36;6.10;;;3.70;;
47555;SDS011;33291;46.222;26.460;2023-06-14T03:55:01;7.13;;;4.43;;
47555;SDS011;33291;46.222;26.460;2023-06-14T03:57:29;5.60;;;3.80;;
47555;SDS011;33291;46.222;26.460;2023-06-14T03:59:54;8.73;;;4.63;;
47555;SDS011;33291;46.222;26.460;2023-06-14T04:02:20;6.53;;;4.03;;
47555;SDS011;33291;46.222;26.460;2023-06-14T04:04:46;5.78;;;4.00;;
47555;SDS011;33291;46.222;26.460;2023-06-14T04:07:12;7.72;;;5.05;;
47555;SDS011;33291;46.222;26.460;2023-06-14T04:09:38;7.82;;;4.78;;
47555;SDS011;33291;46.222;26.460;2023-06-14T04:12:05;9.73;;;5.18;;
47555;SDS011;33291;46.222;26.460;2023-06-14T04:14:31;8.35;;;4.85;;
47555;SDS011;33291;46.222;26.460;2023-06-14T04:16:58;7.93;;;4.72;;
47555;SDS011;33291;46.222;26.460;2023-06-14T04:19:24;8.02;;;5.15;;
47555;SDS011;33291;46.222;26.460;2023-06-14T04:21:49;10.98;;;4.78;;
47555;SDS011;33291;46.222;26.460;2023-06-14T04:24:15;6.85;;;4.97;;
47555;SDS011;33291;46.222;26.460;2023-06-14T04:26:44;5.55;;;4.00;;
47555;SDS011;33291;46.222;26.460;2023-06-14T04:29:10;14.23;;;4.75;;
47555;SDS011;33291;46.222;26.460;2023-06-14T04:31:41;9.50;;;4.82;;
47555;SDS011;33291;46.222;26.460;2023-06-14T04:34:07;8.23;;;4.50;;
47555;SDS011;33291;46.222;26.460;2023-06-14T04:36:33;8.05;;;4.30;;
47555;SDS011;33291;46.222;26.460;2023-06-14T04:39:02;7.80;;;4.15;;
47555;SDS011;33291;46.222;26.460;2023-06-14T04:41:29;14.75;;;5.93;;
47555;SDS011;33291;46.222;26.460;2023-06-14T04:43:59;6.72;;;5.05;;
47555;SDS011;33291;46.222;26.460;2023-06-14T04:46:29;6.40;;;4.25;;
47555;SDS011;33291;46.222;26.460;2023-06-14T04:48:57;6.93;;;4.22;;
47555;SDS011;33291;46.222;26.460;2023-06-14T04:51:22;6.57;;;3.90;;
47555;SDS011;33291;46.222;26.460;2023-06-14T04:53:54;12.93;;;5.53;;
47555;SDS011;33291;46.222;26.460;2023-06-14T04:56:23;5.95;;;4.20;;
47555;SDS011;33291;46.222;26.460;2023-06-14T04:58:51;7.32;;;4.78;;
47555;SDS011;33291;46.222;26.460;2023-06-14T05:01:18;7.72;;;4.50;;
47555;SDS011;33291;46.222;26.460;2023-06-14T05:03:44;6.03;;;3.90;;
47555;SDS011;33291;46.222;26.460;2023-06-14T05:06:10;9.35;;;4.20;;
47555;SDS011;33291;46.222;26.460;2023-06-14T05:08:37;9.05;;;4.53;;
47555;SDS011;33291;46.222;26.460;2023-06-14T05:11:02;5.05;;;3.97;;
47555;SDS011;33291;46.222;26.460;2023-06-14T05:13:28;7.57;;;3.42;;
47555;SDS011;33291;46.222;26.460;2023-06-14T05:15:53;6.82;;;4.18;;
47555;SDS011;33291;46.222;26.460;2023-06-14T05:18:19;8.13;;;4.65;;
47555;SDS011;33291;46.222;26.460;2023-06-14T05:20:45;10.23;;;3.60;;
47555;SDS011;33291;46.222;26.460;2023-06-14T05:23:11;8.02;;;4.20;;
47555;SDS011;33291;46.222;26.460;2023-06-14T05:25:41;6.25;;;3.83;;
47555;SDS011;33291;46.222;26.460;2023-06-14T05:28:09;10.50;;;4.13;;
47555;SDS011;33291;46.222;26.460;2023-06-14T05:30:35;6.05;;;3.30;;
47555;SDS011;33291;46.222;26.460;2023-06-14T05:33:01;6.60;;;3.67;;
47555;SDS011;33291;46.222;26.460;2023-06-14T05:35:26;11.18;;;4.13;;
47555;SDS011;33291;46.222;26.460;2023-06-14T05:37:52;7.65;;;3.30;;
47555;SDS011;33291;46.222;26.460;2023-06-14T05:40:19;3.95;;;2.83;;
47555;SDS011;33291;46.222;26.460;2023-06-14T05:42:44;4.15;;;2.80;;
47555;SDS011;33291;46.222;26.460;2023-06-14T05:45:10;4.85;;;2.80;;
47555;SDS011;33291;46.222;26.460;2023-06-14T05:47:36;4.22;;;3.13;;
47555;SDS011;33291;46.222;26.460;2023-06-14T05:50:01;8.25;;;3.28;;
47555;SDS011;33291;46.222;26.460;2023-06-14T05:52:27;8.10;;;3.25;;
47555;SDS011;33291;46.222;26.460;2023-06-14T05:54:53;6.32;;;2.60;;
47555;SDS011;33291;46.222;26.460;2023-06-14T05:57:18;5.65;;;3.00;;
47555;SDS011;33291;46.222;26.460;2023-06-14T05:59:44;6.40;;;3.15;;
47555;SDS011;33291;46.222;26.460;2023-06-14T06:02:10;4.90;;;3.72;;
47555;SDS011;33291;46.222;26.460;2023-06-14T06:04:35;4.60;;;3.30;;
47555;SDS011;33291;46.222;26.460;2023-06-14T06:07:01;9.65;;;3.63;;
47555;SDS011;33291;46.222;26.460;2023-06-14T06:09:26;6.63;;;3.92;;
47555;SDS011;33291;46.222;26.460;2023-06-14T06:11:52;6.43;;;3.50;;
47555;SDS011;33291;46.222;26.460;2023-06-14T06:14:17;5.47;;;2.95;;
47555;SDS011;33291;46.222;26.460;2023-06-14T06:16:43;4.35;;;2.78;;
47555;SDS011;33291;46.222;26.460;2023-06-14T06:19:08;4.20;;;2.72;;
47555;SDS011;33291;46.222;26.460;2023-06-14T06:21:33;5.75;;;2.83;;
47555;SDS011;33291;46.222;26.460;2023-06-14T06:23:59;7.05;;;3.03;;
47555;SDS011;33291;46.222;26.460;2023-06-14T06:26:28;9.25;;;3.25;;
47555;SDS011;33291;46.222;26.460;2023-06-14T06:28:54;4.93;;;3.00;;
47555;SDS011;33291;46.222;26.460;2023-06-14T06:31:20;3.90;;;2.90;;
47555;SDS011;33291;46.222;26.460;2023-06-14T06:33:47;5.88;;;3.08;;
47555;SDS011;33291;46.222;26.460;2023-06-14T06:36:13;4.68;;;3.10;;
47555;SDS011;33291;46.222;26.460;2023-06-14T06:38:38;4.70;;;3.22;;
47555;SDS011;33291;46.222;26.460;2023-06-14T06:41:03;7.43;;;3.30;;
47555;SDS011;33291;46.222;26.460;2023-06-14T06:43:29;5.72;;;3.03;;
47555;SDS011;33291;46.222;26.460;2023-06-14T06:45:54;4.82;;;3.40;;
47555;SDS011;33291;46.222;26.460;2023-06-14T06:48:20;9.95;;;3.20;;
47555;SDS011;33291;46.222;26.460;2023-06-14T06:50:45;5.50;;;3.17;;
47555;SDS011;33291;46.222;26.460;2023-06-14T06:53:11;21.38;;;3.03;;
47555;SDS011;33291;46.222;26.460;2023-06-14T06:55:36;8.40;;;2.97;;
47555;SDS011;33291;46.222;26.460;2023-06-14T06:58:02;5.28;;;2.88;;
47555;SDS011;33291;46.222;26.460;2023-06-14T07:00:29;4.25;;;2.50;;
47555;SDS011;33291;46.222;26.460;2023-06-14T07:02:55;6.35;;;2.33;;
47555;SDS011;33291;46.222;26.460;2023-06-14T07:05:22;17.20;;;3.53;;
47555;SDS011;33291;46.222;26.460;2023-06-14T07:07:47;9.85;;;3.10;;
47555;SDS011;33291;46.222;26.460;2023-06-14T07:10:13;5.20;;;2.60;;
47555;SDS011;33291;46.222;26.460;2023-06-14T07:12:38;4.57;;;3.00;;
47555;SDS011;33291;46.222;26.460;2023-06-14T07:15:05;3.80;;;2.88;;
47555;SDS011;33291;46.222;26.460;2023-06-14T07:17:34;5.43;;;2.83;;
47555;SDS011;33291;46.222;26.460;2023-06-14T07:20:00;3.67;;;2.95;;
47555;SDS011;33291;46.222;26.460;2023-06-14T07:22:42;6.18;;;2.40;;
47555;SDS011;33291;46.222;26.460;2023-06-14T07:25:11;4.00;;;2.22;;
47555;SDS011;33291;46.222;26.460;2023-06-14T07:27:39;5.38;;;3.13;;
47555;SDS011;33291;46.222;26.460;2023-06-14T07:30:08;4.10;;;1.98;;
47555;SDS011;33291;46.222;26.460;2023-06-14T07:32:34;3.85;;;2.35;;
47555;SDS011;33291;46.222;26.460;2023-06-14T07:35:00;5.78;;;3.05;;
47555;SDS011;33291;46.222;26.460;2023-06-14T07:37:25;4.40;;;2.20;;
47555;SDS011;33291;46.222;26.460;2023-06-14T07:39:51;4.90;;;2.80;;
47555;SDS011;33291;46.222;26.460;2023-06-14T07:42:16;5.68;;;2.30;;
47555;SDS011;33291;46.222;26.460;2023-06-14T07:44:42;3.53;;;2.35;;
47555;SDS011;33291;46.222;26.460;2023-06-14T07:47:07;3.38;;;2.33;;
47555;SDS011;33291;46.222;26.460;2023-06-14T07:49:33;3.30;;;2.42;;
47555;SDS011;33291;46.222;26.460;2023-06-14T07:51:58;3.38;;;2.28;;
47555;SDS011;33291;46.222;26.460;2023-06-14T07:54:24;4.53;;;2.97;;
47555;SDS011;33291;46.222;26.460;2023-06-14T07:56:51;3.15;;;2.20;;
47555;SDS011;33291;46.222;26.460;2023-06-14T07:59:17;4.35;;;2.42;;
47555;SDS011;33291;46.222;26.460;2023-06-14T08:01:42;3.78;;;2.70;;
47555;SDS011;33291;46.222;26.460;2023-06-14T08:04:14;5.97;;;2.42;;
47555;SDS011;33291;46.222;26.460;2023-06-14T08:06:40;4.70;;;2.90;;
47555;SDS011;33291;46.222;26.460;2023-06-14T08:09:09;4.80;;;3.10;;
47555;SDS011;33291;46.222;26.460;2023-06-14T08:11:35;3.92;;;2.38;;
47555;SDS011;33291;46.222;26.460;2023-06-14T08:14:01;3.97;;;2.33;;
47555;SDS011;33291;46.222;26.460;2023-06-14T08:16:26;2.60;;;2.13;;
47555;SDS011;33291;46.222;26.460;2023-06-14T08:18:52;5.65;;;2.70;;
47555;SDS011;33291;46.222;26.460;2023-06-14T08:21:17;4.95;;;2.72;;
47555;SDS011;33291;46.222;26.460;2023-06-14T08:23:43;4.38;;;2.50;;
47555;SDS011;33291;46.222;26.460;2023-06-14T08:26:09;5.82;;;3.03;;
47555;SDS011;33291;46.222;26.460;2023-06-14T08:28:35;10.63;;;2.50;;
47555;SDS011;33291;46.222;26.460;2023-06-14T08:31:00;4.35;;;2.70;;
47555;SDS011;33291;46.222;26.460;2023-06-14T08:33:26;4.55;;;2.47;;
47555;SDS011;33291;46.222;26.460;2023-06-14T08:35:52;5.85;;;2.60;;
47555;SDS011;33291;46.222;26.460;2023-06-14T08:38:17;5.20;;;3.33;;
47555;SDS011;33291;46.222;26.460;2023-06-14T08:40:43;2.70;;;2.40;;
47555;SDS011;33291;46.222;26.460;2023-06-14T08:43:12;3.45;;;2.28;;
47555;SDS011;33291;46.222;26.460;2023-06-14T08:45:38;4.70;;;2.60;;
47555;SDS011;33291;46.222;26.460;2023-06-14T08:48:04;6.32;;;2.55;;
47555;SDS011;33291;46.222;26.460;2023-06-14T08:50:31;3.83;;;2.20;;
47555;SDS011;33291;46.222;26.460;2023-06-14T08:52:57;3.28;;;2.22;;
47555;SDS011;33291;46.222;26.460;2023-06-14T08:55:28;3.80;;;2.53;;
47555;SDS011;33291;46.222;26.460;2023-06-14T08:57:57;3.63;;;2.15;;
47555;SDS011;33291;46.222;26.460;2023-06-14T09:00:26;6.15;;;2.83;;
47555;SDS011;33291;46.222;26.460;2023-06-14T09:02:53;4.18;;;2.40;;
47555;SDS011;33291;46.222;26.460;2023-06-14T09:05:25;7.65;;;3.15;;
47555;SDS011;33291;46.222;26.460;2023-06-14T09:07:51;9.70;;;4.00;;
47555;SDS011;33291;46.222;26.460;2023-06-14T09:10:20;2.40;;;2.05;;
47555;SDS011;33291;46.222;26.460;2023-06-14T09:12:46;3.42;;;2.42;;
47555;SDS011;33291;46.222;26.460;2023-06-14T09:15:12;8.50;;;2.70;;
47555;SDS011;33291;46.222;26.460;2023-06-14T09:17:39;4.07;;;2.33;;
47555;SDS011;33291;46.222;26.460;2023-06-14T09:20:05;3.50;;;2.25;;
47555;SDS011;33291;46.222;26.460;2023-06-14T09:22:33;4.00;;;2.42;;
47555;SDS011;33291;46.222;26.460;2023-06-14T09:24:59;4.53;;;2.53;;
47555;SDS011;33291;46.222;26.460;2023-06-14T09:27:25;3.40;;;2.13;;
47555;SDS011;33291;46.222;26.460;2023-06-14T09:29:52;3.17;;;1.85;;
47555;SDS011;33291;46.222;26.460;2023-06-14T09:32:17;3.00;;;2.10;;
47555;SDS011;33291;46.222;26.460;2023-06-14T09:34:43;4.68;;;2.40;;
47555;SDS011;33291;46.222;26.460;2023-06-14T09:37:09;2.88;;;2.22;;
47555;SDS011;33291;46.222;26.460;2023-06-14T09:39:34;2.65;;;2.38;;
47555;SDS011;33291;46.222;26.460;2023-06-14T09:42:00;5.20;;;2.35;;
47555;SDS011;33291;46.222;26.460;2023-06-14T09:44:25;5.28;;;2.25;;
47555;SDS011;33291;46.222;26.460;2023-06-14T09:46:53;3.45;;;2.25;;
47555;SDS011;33291;46.222;26.460;2023-06-14T09:49:21;3.20;;;2.03;;
47555;SDS011;33291;46.222;26.460;2023-06-14T09:51:46;3.38;;;2.15;;
47555;SDS011;33291;46.222;26.460;2023-06-14T09:54:20;3.10;;;2.17;;
47555;SDS011;33291;46.222;26.460;2023-06-14T09:56:48;2.75;;;2.00;;
47555;SDS011;33291;46.222;26.460;2023-06-14T09:59:16;3.45;;;2.70;;
47555;SDS011;33291;46.222;26.460;2023-06-14T10:01:46;5.57;;;2.25;;
47555;SDS011;33291;46.222;26.460;2023-06-14T10:04:13;2.97;;;2.17;;
47555;SDS011;33291;46.222;26.460;2023-06-14T10:06:45;3.50;;;2.10;;
47555;SDS011;33291;46.222;26.460;2023-06-14T10:09:11;2.95;;;2.60;;
47555;SDS011;33291;46.222;26.460;2023-06-14T10:11:38;3.03;;;2.17;;
47555;SDS011;33291;46.222;26.460;2023-06-14T10:14:10;3.13;;;2.20;;
47555;SDS011;33291;46.222;26.460;2023-06-14T10:16:42;5.47;;;2.35;;
47555;SDS011;33291;46.222;26.460;2023-06-14T10:22:09;4.70;;;2.30;;
47555;SDS011;33291;46.222;26.460;2023-06-14T10:27:08;5.30;;;2.38;;
47555;SDS011;33291;46.222;26.460;2023-06-14T10:29:43;4.32;;;2.70;;
47555;SDS011;33291;46.222;26.460;2023-06-14T10:32:26;4.95;;;2.35;;
47555;SDS011;33291;46.222;26.460;2023-06-14T10:34:56;3.42;;;1.85;;
47555;SDS011;33291;46.222;26.460;2023-06-14T10:37:24;4.18;;;1.80;;
47555;SDS011;33291;46.222;26.460;2023-06-14T10:39:50;4.70;;;2.13;;
47555;SDS011;33291;46.222;26.460;2023-06-14T10:42:15;4.70;;;2.17;;
47555;SDS011;33291;46.222;26.460;2023-06-14T10:44:50;2.88;;;1.90;;
47555;SDS011;33291;46.222;26.460;2023-06-14T10:52:28;3.35;;;2.28;;
47555;SDS011;33291;46.222;26.460;2023-06-14T10:55:01;3.67;;;2.30;;
47555;SDS011;33291;46.222;26.460;2023-06-14T10:57:26;2.85;;;2.38;;
47555;SDS011;33291;46.222;26.460;2023-06-14T10:59:52;2.70;;;2.13;;
47555;SDS011;33291;46.222;26.460;2023-06-14T11:10:20;4.25;;;2.20;;
47555;SDS011;33291;46.222;26.460;2023-06-14T11:12:51;2.65;;;2.28;;
47555;SDS011;33291;46.222;26.460;2023-06-14T11:15:19;2.63;;;2.20;;
47555;SDS011;33291;46.222;26.460;2023-06-14T11:17:51;3.22;;;2.45;;
47555;SDS011;33291;46.222;26.460;2023-06-14T11:20:23;3.47;;;2.03;;
47555;SDS011;33291;46.222;26.460;2023-06-14T11:22:51;4.30;;;2.75;;
47555;SDS011;33291;46.222;26.460;2023-06-14T11:25:17;2.30;;;1.80;;
47555;SDS011;33291;46.222;26.460;2023-06-14T11:27:42;6.70;;;2.00;;
47555;SDS011;33291;46.222;26.460;2023-06-14T11:30:08;2.95;;;1.80;;
47555;SDS011;33291;46.222;26.460;2023-06-14T11:32:35;3.03;;;2.13;;
47555;SDS011;33291;46.222;26.460;2023-06-14T11:35:02;2.40;;;2.00;;
47555;SDS011;33291;46.222;26.460;2023-06-14T11:37:29;2.40;;;1.95;;
47555;SDS011;33291;46.222;26.460;2023-06-14T11:39:58;3.25;;;1.90;;
47555;SDS011;33291;46.222;26.460;2023-06-14T11:42:27;2.67;;;1.90;;
47555;SDS011;33291;46.222;26.460;2023-06-14T11:44:53;3.20;;;2.00;;
47555;SDS011;33291;46.222;26.460;2023-06-14T11:47:20;2.55;;;1.95;;
47555;SDS011;33291;46.222;26.460;2023-06-14T11:49:46;3.92;;;1.75;;
47555;SDS011;33291;46.222;26.460;2023-06-14T11:52:12;5.05;;;2.08;;
47555;SDS011;33291;46.222;26.460;2023-06-14T11:54:37;4.55;;;2.17;;
47555;SDS011;33291;46.222;26.460;2023-06-14T11:57:05;2.25;;;2.05;;
47555;SDS011;33291;46.222;26.460;2023-06-14T11:59:32;4.10;;;2.22;;
47555;SDS011;33291;46.222;26.460;2023-06-14T12:02:02;2.45;;;1.92;;
47555;SDS011;33291;46.222;26.460;2023-06-14T12:04:29;3.10;;;2.22;;
47555;SDS011;33291;46.222;26.460;2023-06-14T12:06:55;2.60;;;2.33;;
47555;SDS011;33291;46.222;26.460;2023-06-14T12:09:22;2.92;;;2.20;;
47555;SDS011;33291;46.222;26.460;2023-06-14T12:11:49;5.03;;;2.45;;
47555;SDS011;33291;46.222;26.460;2023-06-14T12:14:15;3.53;;;2.75;;
47555;SDS011;33291;46.222;26.460;2023-06-14T12:16:41;6.30;;;2.33;;
47555;SDS011;33291;46.222;26.460;2023-06-14T12:19:16;2.45;;;1.98;;
47555;SDS011;33291;46.222;26.460;2023-06-14T12:21:43;4.93;;;2.28;;
47555;SDS011;33291;46.222;26.460;2023-06-14T12:24:14;2.50;;;1.92;;
47555;SDS011;33291;46.222;26.460;2023-06-14T12:26:40;2.03;;;1.80;;
47555;SDS011;33291;46.222;26.460;2023-06-14T12:29:06;3.03;;;2.33;;
47555;SDS011;33291;46.222;26.460;2023-06-14T12:31:33;5.32;;;2.63;;
47555;SDS011;33291;46.222;26.460;2023-06-14T12:33:58;5.18;;;2.40;;
47555;SDS011;33291;46.222;26.460;2023-06-14T12:36:24;2.45;;;2.22;;
47555;SDS011;33291;46.222;26.460;2023-06-14T12:38:50;3.35;;;2.22;;
47555;SDS011;33291;46.222;26.460;2023-06-14T12:41:18;4.55;;;2.60;;
47555;SDS011;33291;46.222;26.460;2023-06-14T12:43:47;2.92;;;2.38;;
47555;SDS011;33291;46.222;26.460;2023-06-14T12:46:13;2.80;;;2.10;;
47555;SDS011;33291;46.222;26.460;2023-06-14T12:48:38;2.70;;;2.00;;
47555;SDS011;33291;46.222;26.460;2023-06-14T12:51:04;2.83;;;2.22;;
47555;SDS011;33291;46.222;26.460;2023-06-14T12:53:29;4.72;;;1.80;;
47555;SDS011;33291;46.222;26.460;2023-06-14T12:55:54;3.03;;;2.15;;
47555;SDS011;33291;46.222;26.460;2023-06-14T12:58:20;3.47;;;2.40;;
47555;SDS011;33291;46.222;26.460;2023-06-14T13:00:46;3.38;;;2.80;;
47555;SDS011;33291;46.222;26.460;2023-06-14T13:03:12;3.95;;;2.30;;
47555;SDS011;33291;46.222;26.460;2023-06-14T13:05:37;2.38;;;2.00;;
47555;SDS011;33291;46.222;26.460;2023-06-14T13:08:06;2.83;;;2.53;;
47555;SDS011;33291;46.222;26.460;2023-06-14T13:10:33;4.80;;;2.33;;
47555;SDS011;33291;46.222;26.460;2023-06-14T13:12:59;3.53;;;2.60;;
47555;SDS011;33291;46.222;26.460;2023-06-14T13:15:25;6.10;;;2.65;;
47555;SDS011;33291;46.222;26.460;2023-06-14T13:17:52;3.40;;;2.45;;
47555;SDS011;33291;46.222;26.460;2023-06-14T13:20:18;5.40;;;2.30;;
47555;SDS011;33291;46.222;26.460;2023-06-14T13:22:43;4.65;;;2.40;;
47555;SDS011;33291;46.222;26.460;2023-06-14T13:25:08;4.63;;;2.58;;
47555;SDS011;33291;46.222;26.460;2023-06-14T13:27:34;3.47;;;2.25;;
47555;SDS011;33291;46.222;26.460;2023-06-14T13:29:59;2.80;;;1.98;;
47555;SDS011;33291;46.222;26.460;2023-06-14T13:32:25;2.90;;;2.40;;
47555;SDS011;33291;46.222;26.460;2023-06-14T13:34:50;3.08;;;2.00;;
47555;SDS011;33291;46.222;26.460;2023-06-14T13:37:16;2.72;;;2.08;;
47555;SDS011;33291;46.222;26.460;2023-06-14T13:39:42;7.90;;;2.65;;
47555;SDS011;33291;46.222;26.460;2023-06-14T13:42:07;5.80;;;2.25;;
47555;SDS011;33291;46.222;26.460;2023-06-14T13:44:33;8.23;;;2.30;;
47555;SDS011;33291;46.222;26.460;2023-06-14T13:46:59;3.20;;;2.03;;
47555;SDS011;33291;46.222;26.460;2023-06-14T13:49:25;2.78;;;1.95;;
47555;SDS011;33291;46.222;26.460;2023-06-14T13:51:50;2.75;;;2.08;;
47555;SDS011;33291;46.222;26.460;2023-06-14T13:54:17;3.53;;;2.13;;
47555;SDS011;33291;46.222;26.460;2023-06-14T13:56:45;4.20;;;2.25;;
47555;SDS011;33291;46.222;26.460;2023-06-14T13:59:11;2.55;;;2.10;;
47555;SDS011;33291;46.222;26.460;2023-06-14T14:01:37;7.90;;;2.33;;
47555;SDS011;33291;46.222;26.460;2023-06-14T14:04:02;3.25;;;1.83;;
47555;SDS011;33291;46.222;26.460;2023-06-14T14:06:28;4.43;;;2.40;;
47555;SDS011;33291;46.222;26.460;2023-06-14T14:08:53;2.35;;;1.83;;
47555;SDS011;33291;46.222;26.460;2023-06-14T14:11:19;3.90;;;2.03;;
47555;SDS011;33291;46.222;26.460;2023-06-14T14:13:45;3.10;;;1.80;;
47555;SDS011;33291;46.222;26.460;2023-06-14T14:16:12;8.13;;;2.90;;
47555;SDS011;33291;46.222;26.460;2023-06-14T14:18:38;3.67;;;2.40;;
47555;SDS011;33291;46.222;26.460;2023-06-14T14:21:04;2.47;;;1.70;;
47555;SDS011;33291;46.222;26.460;2023-06-14T14:23:29;3.20;;;2.17;;
47555;SDS011;33291;46.222;26.460;2023-06-14T14:25:55;2.47;;;1.75;;
47555;SDS011;33291;46.222;26.460;2023-06-14T14:28:20;3.92;;;1.70;;
47555;SDS011;33291;46.222;26.460;2023-06-14T14:30:49;6.15;;;2.03;;
47555;SDS011;33291;46.222;26.460;2023-06-14T14:33:14;2.70;;;1.75;;
47555;SDS011;33291;46.222;26.460;2023-06-14T14:35:44;4.22;;;2.10;;
47555;SDS011;33291;46.222;26.460;2023-06-14T14:38:13;2.65;;;2.10;;
47555;SDS011;33291;46.222;26.460;2023-06-14T14:40:40;1.95;;;1.60;;
47555;SDS011;33291;46.222;26.460;2023-06-14T14:43:07;2.20;;;1.80;;
47555;SDS011;33291;46.222;26.460;2023-06-14T14:45:32;2.42;;;1.95;;
47555;SDS011;33291;46.222;26.460;2023-06-14T14:47:58;1.60;;;1.50;;
47555;SDS011;33291;46.222;26.460;2023-06-14T14:50:24;1.90;;;1.70;;